createdAt,value
2019-03-10T00:04:35.698Z,27.65
2019-03-10T00:10:40.022Z,26.00
2019-03-10T00:16:44.460Z,24.47
2019-03-10T00:22:48.739Z,27.98
2019-03-10T00:28:52.977Z,28.32
2019-03-10T00:34:58.402Z,32.95
2019-03-10T00:41:34.413Z,28.90
2019-03-10T00:48:03.718Z,26.33
2019-03-10T00:54:07.936Z,17.90
2019-03-10T01:00:17.134Z,16.15
2019-03-10T01:06:21.401Z,17.67
2019-03-10T01:12:25.784Z,16.75
2019-03-10T01:18:30.833Z,22.73
2019-03-10T01:24:35.365Z,18.25
2019-03-10T01:30:53.311Z,15.70
2019-03-10T01:36:57.540Z,15.40
2019-03-10T01:43:01.829Z,13.62
2019-03-10T01:49:06.121Z,13.00
2019-03-10T01:55:10.788Z,16.57
2019-03-10T02:01:14.957Z,19.77
2019-03-10T02:07:19.675Z,28.67
2019-03-10T02:13:24.115Z,16.75
2019-03-10T02:19:28.420Z,17.57
2019-03-10T02:25:32.656Z,15.50
2019-03-10T02:31:36.876Z,19.02
2019-03-10T02:37:41.210Z,15.85
2019-03-10T02:43:45.420Z,24.85
2019-03-10T02:49:49.719Z,24.85
2019-03-10T02:55:53.965Z,26.25
2019-03-10T03:01:58.225Z,25.20
2019-03-10T03:08:02.482Z,32.58
2019-03-10T03:14:06.816Z,15.85
2019-03-10T03:20:11.034Z,15.03
2019-03-10T03:26:15.461Z,16.40
2019-03-10T03:32:19.800Z,15.98
2019-03-10T03:38:27.241Z,13.08
2019-03-10T03:44:31.446Z,11.22
2019-03-10T03:50:35.852Z,13.38
2019-03-10T03:56:40.077Z,8.65
2019-03-10T04:02:44.486Z,10.65
2019-03-10T04:08:48.696Z,12.23
2019-03-10T04:14:52.977Z,16.37
2019-03-10T04:20:57.236Z,14.90
2019-03-10T04:27:01.480Z,15.00
2019-03-10T04:33:05.830Z,24.27
2019-03-10T04:39:10.030Z,17.70
2019-03-10T04:45:14.357Z,16.30
2019-03-10T04:51:18.633Z,25.55
2019-03-10T04:57:23.100Z,18.07
2019-03-10T05:03:27.411Z,13.30
2019-03-10T05:09:31.595Z,14.87
2019-03-10T05:15:35.818Z,12.28
2019-03-10T05:21:40.043Z,13.43
2019-03-10T05:27:44.261Z,15.43
2019-03-10T05:33:48.521Z,27.77
2019-03-10T05:39:52.821Z,24.25
2019-03-10T05:45:57.075Z,19.75
2019-03-10T05:52:01.335Z,12.53
2019-03-10T05:58:05.571Z,16.57
2019-03-10T06:04:09.898Z,11.43
2019-03-10T06:10:14.098Z,9.50
2019-03-10T06:16:18.727Z,11.30
2019-03-10T06:22:23.013Z,7.20
2019-03-10T06:28:27.838Z,7.15
2019-03-10T06:34:32.033Z,7.97
2019-03-10T06:40:36.258Z,11.15
2019-03-10T06:46:40.548Z,8.43
2019-03-10T06:52:44.774Z,9.18
2019-03-10T06:58:49.052Z,11.08
2019-03-10T07:04:53.349Z,10.90
2019-03-10T07:10:57.701Z,10.80
2019-03-10T07:17:01.980Z,9.98
2019-03-10T07:23:08.490Z,7.80
2019-03-10T07:29:23.233Z,7.80
2019-03-10T07:35:41.990Z,7.62
2019-03-10T07:41:53.810Z,7.80
2019-03-10T07:48:32.566Z,9.45
2019-03-10T07:54:54.372Z,11.15
2019-03-10T08:01:32.603Z,12.75
2019-03-10T08:08:02.090Z,15.70
2019-03-10T08:14:37.480Z,20.37
2019-03-10T08:20:51.250Z,16.00
2019-03-10T08:27:12.991Z,24.12
2019-03-10T08:33:34.817Z,21.50
2019-03-10T08:40:16.200Z,24.95
2019-03-10T08:46:42.193Z,21.57
2019-03-10T08:53:04.001Z,26.42
2019-03-10T08:59:33.159Z,19.77
2019-03-10T09:06:05.568Z,23.30
2019-03-10T09:12:31.955Z,20.35
2019-03-10T09:18:49.813Z,23.10
2019-03-10T09:25:19.521Z,23.30
2019-03-10T09:31:39.654Z,22.67
2019-03-10T09:38:10.150Z,23.55
2019-03-10T09:44:44.455Z,29.92
2019-03-10T09:51:21.904Z,27.35
2019-03-10T09:57:59.072Z,23.27
2019-03-10T10:04:35.860Z,20.57
2019-03-10T10:10:45.899Z,13.08
2019-03-10T10:17:13.182Z,19.55
2019-03-10T10:23:42.313Z,21.55
2019-03-10T10:30:01.744Z,13.55
2019-03-10T10:36:40.251Z,19.73
2019-03-10T10:42:53.899Z,12.40
2019-03-10T10:49:03.489Z,12.58
2019-03-10T10:55:18.962Z,11.53
2019-03-10T11:01:41.207Z,7.67
2019-03-10T11:08:04.518Z,5.58
2019-03-10T11:14:27.772Z,6.35
2019-03-10T11:20:40.365Z,5.10
2019-03-10T11:27:06.715Z,2.98
2019-03-10T11:33:28.566Z,4.97
2019-03-10T11:40:03.715Z,5.58
2019-03-10T11:46:25.085Z,1.85
2019-03-10T11:52:46.006Z,8.40
2019-03-10T11:58:55.714Z,1.95
2019-03-10T12:05:17.330Z,6.08
2019-03-10T12:11:21.497Z,1.75
2019-03-10T12:17:25.872Z,4.62
2019-03-10T12:23:30.326Z,5.08
2019-03-10T12:29:34.539Z,0.78
2019-03-10T12:35:38.720Z,4.72
2019-03-10T12:41:43.005Z,5.22
2019-03-10T12:47:47.192Z,4.22
2019-03-10T12:53:51.558Z,4.42
2019-03-10T12:59:55.763Z,3.55
2019-03-10T13:06:00.054Z,3.30
2019-03-10T13:12:04.359Z,8.13
2019-03-10T13:18:08.709Z,2.50
2019-03-10T13:24:12.969Z,6.72
2019-03-10T13:30:17.252Z,4.40
2019-03-10T13:36:21.704Z,4.83
2019-03-10T13:42:25.895Z,4.83
2019-03-10T13:48:30.085Z,5.97
2019-03-10T13:54:34.316Z,6.83
2019-03-10T14:00:38.635Z,2.05
2019-03-10T14:06:42.944Z,2.00
2019-03-10T14:12:47.139Z,4.33
2019-03-10T14:18:51.357Z,2.05
2019-03-10T14:24:55.569Z,2.70
2019-03-10T14:30:59.813Z,1.12
2019-03-10T14:37:04.002Z,2.62
2019-03-10T14:43:08.323Z,1.10
2019-03-10T14:49:22.619Z,0.50
2019-03-10T14:55:18.537Z,2.05
2019-03-10T15:01:22.786Z,4.15
2019-03-10T15:07:26.964Z,3.30
2019-03-10T15:13:31.400Z,2.83
2019-03-10T15:19:35.650Z,1.75
2019-03-10T15:25:39.925Z,2.77
2019-03-10T15:31:44.134Z,3.47
2019-03-10T15:37:48.432Z,1.80
2019-03-10T15:43:52.688Z,4.17
2019-03-10T15:49:57.003Z,4.00
2019-03-10T15:56:01.290Z,1.72
2019-03-10T16:02:05.683Z,2.05
2019-03-10T16:08:09.932Z,2.67
2019-03-10T16:14:14.224Z,2.22
2019-03-10T16:20:18.421Z,3.12
2019-03-10T16:26:22.723Z,2.27
2019-03-10T16:32:26.963Z,3.08
2019-03-10T16:38:31.196Z,2.12
2019-03-10T16:44:35.463Z,4.33
2019-03-10T16:50:39.846Z,3.33
2019-03-10T16:56:44.136Z,4.78
2019-03-10T17:02:48.321Z,3.15
2019-03-10T17:08:52.707Z,3.27
2019-03-10T17:14:57.170Z,2.92
2019-03-10T17:21:02.252Z,3.27
2019-03-10T17:27:06.509Z,6.00
2019-03-10T17:33:11.017Z,3.95
2019-03-10T17:39:15.503Z,3.27
2019-03-10T17:45:20.329Z,4.65
2019-03-10T17:51:29.731Z,4.70
2019-03-10T17:57:34.220Z,3.10
2019-03-10T18:03:38.433Z,2.60
2019-03-10T18:09:42.781Z,4.80
2019-03-10T18:15:47.501Z,2.75
2019-03-10T18:21:51.819Z,5.65
2019-03-10T18:27:56.103Z,3.92
2019-03-10T18:34:00.461Z,5.08
2019-03-10T18:40:04.969Z,7.17
2019-03-10T18:46:09.345Z,5.60
2019-03-10T18:52:14.122Z,7.25
2019-03-10T18:58:18.785Z,6.37
2019-03-10T19:04:23.018Z,8.48
2019-03-10T19:10:27.564Z,10.13
2019-03-10T19:16:31.852Z,8.75
2019-03-10T19:22:36.288Z,11.38
2019-03-10T19:28:40.747Z,8.13
2019-03-10T19:34:44.979Z,10.72
2019-03-10T19:40:49.438Z,7.20
2019-03-10T19:46:55.187Z,10.43
2019-03-10T19:52:59.598Z,7.87
2019-03-10T19:59:03.830Z,6.92
2019-03-10T20:05:08.635Z,6.67
2019-03-10T20:11:13.485Z,7.67
2019-03-10T20:17:17.924Z,10.10
2019-03-10T20:23:22.283Z,11.63
2019-03-10T20:29:26.817Z,19.00
2019-03-10T20:35:31.732Z,11.70
2019-03-10T20:41:36.565Z,15.85
2019-03-10T20:47:41.145Z,9.25
2019-03-10T20:53:45.594Z,7.92
2019-03-10T21:00:00.133Z,8.63
2019-03-10T21:05:56.407Z,9.48
2019-03-10T21:12:01.089Z,8.13
2019-03-10T21:18:05.611Z,11.18
2019-03-10T21:24:09.952Z,14.28
2019-03-10T21:30:16.997Z,12.10
2019-03-10T21:36:21.331Z,8.15
2019-03-10T21:42:26.009Z,2.95
2019-03-10T21:48:33.255Z,11.93
2019-03-10T21:54:37.984Z,20.97
2019-03-10T22:00:42.309Z,8.28
2019-03-10T22:06:46.617Z,8.10
2019-03-10T22:12:51.291Z,9.48
2019-03-10T22:18:55.858Z,6.22
2019-03-10T22:25:01.667Z,6.47
2019-03-10T22:31:06.569Z,7.12
2019-03-10T22:37:10.860Z,6.50
2019-03-10T22:43:15.178Z,8.40
2019-03-10T22:49:19.425Z,7.45
2019-03-10T22:55:23.793Z,7.25
2019-03-10T23:01:27.990Z,8.95
2019-03-10T23:07:32.320Z,6.37
2019-03-10T23:13:36.605Z,7.20
2019-03-10T23:19:40.854Z,9.20
2019-03-10T23:25:45.244Z,7.65
2019-03-10T23:31:49.516Z,3.87
2019-03-10T23:37:53.721Z,9.18
2019-03-10T23:43:57.966Z,8.90
2019-03-10T23:50:02.339Z,12.40
2019-03-10T23:56:06.673Z,11.35
